Time;durP1;ratioP1;P1;durP2;ratioP2;P2;SDS_P1;SDS_P2;PMS_P1;PMS_P2;Temp;Humidity;BMP_temperature;BMP_pressure;BME280_temperature;BME280_humidity;BME280_pressure;Samples;Min_cycle;Max_cycle;Signal;HPM_P1;HPM_P2
2022/03/16 00:01:14;;;;;;;36.80;20.70;;;;;;;5.47;47.96;97004.76;108077;1270;42523;-74
2022/03/16 00:03:47;;;;;;;27.20;17.50;;;;;;;5.49;47.83;96998.41;108111;1270;38202;-74
2022/03/16 00:06:18;;;;;;;32.30;19.40;;;;;;;5.46;47.91;96995.31;108079;1270;43261;-74
2022/03/16 00:08:49;;;;;;;32.80;21.10;;;;;;;5.47;47.99;96994.44;108141;1270;37825;-74
2022/03/16 00:11:20;;;;;;;33.50;20.80;;;;;;;5.49;47.93;96987.45;108053;1270;38612;-74
2022/03/16 00:13:51;;;;;;;33.40;20.00;;;;;;;5.49;47.78;96979.28;108131;1270;37062;-74
2022/03/16 00:16:22;;;;;;;29.10;18.10;;;;;;;5.48;48.07;96975.69;108078;1270;32723;-74
2022/03/16 00:18:54;;;;;;;33.00;19.10;;;;;;;5.46;47.83;96966.45;108029;1270;98808;-74
2022/03/16 00:21:25;;;;;;;27.60;16.20;;;;;;;5.52;47.70;96967.73;107963;1270;30157;-74
2022/03/16 00:23:56;;;;;;;30.50;18.40;;;;;;;5.52;47.80;96967.36;108161;1270;44707;-74
2022/03/16 00:26:27;;;;;;;27.70;18.90;;;;;;;5.49;47.74;96958.36;108057;1270;40225;-74
2022/03/16 00:28:58;;;;;;;30.80;18.10;;;;;;;5.51;47.52;96956.23;108133;1270;28743;-74
2022/03/16 00:31:29;;;;;;;27.30;17.60;;;;;;;5.56;47.26;96952.38;108147;1269;34675;-74
2022/03/16 00:34:00;;;;;;;26.20;16.90;;;;;;;5.60;47.28;96951.06;108040;1268;33938;-74
2022/03/16 00:36:31;;;;;;;27.90;16.40;;;;;;;5.68;46.72;96945.21;108107;1268;43660;-73
2022/03/16 00:39:01;;;;;;;28.90;17.50;;;;;;;5.78;46.76;96946.49;108092;1270;39515;-74
2022/03/16 00:41:33;;;;;;;27.20;17.10;;;;;;;5.77;46.75;96942.83;108131;1270;29949;-73
2022/03/16 00:44:05;;;;;;;24.60;16.90;;;;;;;5.75;46.80;96947.42;108070;1270;43014;-74
2022/03/16 00:46:37;;;;;;;24.50;15.40;;;;;;;5.77;46.55;96942.62;108126;1270;36868;-74
2022/03/16 00:49:08;;;;;;;22.70;15.30;;;;;;;5.82;46.08;96930.91;108122;1270;31673;-74
2022/03/16 00:51:40;;;;;;;26.10;15.60;;;;;;;5.97;45.82;96929.79;107971;1270;39938;-73
2022/03/16 00:54:12;;;;;;;21.00;14.70;;;;;;;6.06;45.29;96925.88;108123;1270;35974;-74
2022/03/16 00:56:43;;;;;;;22.30;14.70;;;;;;;6.14;45.65;96920.05;108107;1269;41414;-74
2022/03/16 00:59:14;;;;;;;24.60;15.10;;;;;;;6.12;45.62;96923.49;108116;1270;30442;-74
2022/03/16 01:01:45;;;;;;;26.20;16.10;;;;;;;6.02;45.99;96926.39;108015;1270;31541;-74
2022/03/16 01:04:16;;;;;;;27.70;15.70;;;;;;;5.93;45.88;96929.23;108028;1270;33767;-74
2022/03/16 01:06:47;;;;;;;27.40;17.00;;;;;;;5.91;45.85;96937.09;107830;1269;226071;-74
2022/03/16 01:09:18;;;;;;;25.20;15.20;;;;;;;5.93;45.55;96938.06;108003;1270;35356;-74
2022/03/16 01:11:49;;;;;;;28.60;17.80;;;;;;;5.99;45.59;96934.56;108174;1269;37173;-74
2022/03/16 01:14:20;;;;;;;28.70;17.50;;;;;;;6.01;45.66;96933.59;108137;1270;32276;-73
2022/03/16 01:16:51;;;;;;;26.60;16.40;;;;;;;5.98;45.80;96937.23;108156;1270;37831;-74
2022/03/16 01:19:22;;;;;;;27.60;15.40;;;;;;;5.93;46.07;96936.27;108139;1270;42903;-74
2022/03/16 01:21:53;;;;;;;25.90;15.50;;;;;;;5.91;45.64;96938.70;108179;1270;41737;-74
2022/03/16 01:24:24;;;;;;;26.30;16.90;;;;;;;5.96;45.58;96931.95;108116;1270;31837;-74
2022/03/16 01:26:55;;;;;;;30.30;17.80;;;;;;;5.95;46.09;96933.99;108063;1270;36609;-74
2022/03/16 01:29:26;;;;;;;27.70;17.40;;;;;;;5.90;46.14;96933.26;107977;1270;39369;-74
2022/03/16 01:31:57;;;;;;;24.50;16.50;;;;;;;5.85;46.04;96933.02;108107;1270;31114;-74
2022/03/16 01:34:28;;;;;;;23.70;15.30;;;;;;;5.86;45.61;96929.77;108075;1270;35156;-74
2022/03/16 01:37:00;;;;;;;24.30;15.00;;;;;;;5.92;45.68;96924.64;108067;1269;36959;-74
2022/03/16 01:39:31;;;;;;;25.80;15.60;;;;;;;5.98;45.56;96920.80;108104;1270;40668;-73
2022/03/16 01:42:02;;;;;;;23.30;15.30;;;;;;;5.99;45.37;96917.19;108035;1270;89157;-74
2022/03/16 01:44:47;;;;;;;26.60;16.30;;;;;;;5.98;45.67;96909.60;108089;1270;41863;-74
2022/03/16 01:47:20;;;;;;;27.30;16.90;;;;;;;5.91;46.04;96911.86;108080;1269;51185;-74
2022/03/16 01:49:54;;;;;;;26.80;16.50;;;;;;;5.85;46.08;96914.65;108198;1269;37139;-74
2022/03/16 01:52:27;;;;;;;28.80;16.90;;;;;;;5.82;46.23;96911.55;108113;1269;33177;-74
2022/03/16 01:55:04;;;;;;;28.80;16.80;;;;;;;5.79;46.63;96908.34;108091;1268;40188;-74
2022/03/16 01:57:37;;;;;;;30.30;18.00;;;;;;;5.71;46.90;96907.75;108117;1270;37202;-73
2022/03/16 02:00:10;;;;;;;26.20;15.30;;;;;;;5.69;46.88;96907.82;108093;1270;41781;-74
2022/03/16 02:02:41;;;;;;;30.60;17.30;;;;;;;5.65;47.36;96897.45;108083;1270;39221;-74
2022/03/16 02:05:13;;;;;;;27.70;16.10;;;;;;;5.61;47.57;96897.70;108007;1270;34640;-73
2022/03/16 02:07:46;;;;;;;24.00;13.00;;;;;;;5.62;47.44;96895.92;108042;1270;49249;-73
2022/03/16 02:10:17;;;;;;;24.50;13.10;;;;;;;5.77;46.37;96895.27;108134;1270;33658;-73
2022/03/16 02:12:51;;;;;;;27.90;16.10;;;;;;;5.92;46.70;96893.48;108151;1270;33681;-73
2022/03/16 02:15:23;;;;;;;23.40;14.70;;;;;;;5.90;47.16;96896.78;108134;1270;31170;-74
2022/03/16 02:17:55;;;;;;;25.00;15.40;;;;;;;5.83;47.39;96900.25;108158;1268;36212;-73
2022/03/16 02:20:27;;;;;;;22.70;14.20;;;;;;;5.78;47.38;96902.91;108063;1270;40739;-74
2022/03/16 02:22:59;;;;;;;22.50;13.40;;;;;;;5.75;47.25;96904.17;108040;1270;36843;-74
2022/03/16 02:25:32;;;;;;;22.60;12.80;;;;;;;5.76;46.83;96907.55;107993;1270;41847;-73
2022/03/16 02:28:03;;;;;;;21.60;12.80;;;;;;;5.86;46.29;96907.98;108130;1270;27970;-74
2022/03/16 02:30:34;;;;;;;20.00;13.00;;;;;;;5.91;46.66;96908.52;108123;1270;36463;-74
2022/03/16 02:33:05;;;;;;;20.90;13.40;;;;;;;5.88;46.78;96906.01;108101;1268;41423;-73
2022/03/16 02:35:36;;;;;;;20.50;13.10;;;;;;;5.82;46.74;96907.92;108037;1270;35703;-74
2022/03/16 02:38:07;;;;;;;22.70;14.30;;;;;;;5.81;46.77;96905.81;108069;1270;53049;-73
2022/03/16 02:40:38;;;;;;;21.10;13.50;;;;;;;5.81;46.51;96904.64;108116;1270;46879;-73
2022/03/16 02:43:09;;;;;;;19.60;13.80;;;;;;;5.81;47.04;96900.34;108146;1269;34107;-74
2022/03/16 02:45:40;;;;;;;23.80;14.60;;;;;;;5.73;46.98;96900.14;108114;1270;38920;-73
2022/03/16 02:48:11;;;;;;;22.00;13.30;;;;;;;5.70;46.95;96901.16;108097;1270;33941;-74
2022/03/16 02:50:42;;;;;;;19.70;13.10;;;;;;;5.60;47.47;96900.70;108086;1270;39971;-74
2022/03/16 02:53:13;;;;;;;18.20;11.60;;;;;;;5.52;47.27;96905.77;108117;1270;38365;-73
2022/03/16 02:55:46;;;;;;;20.80;13.10;;;;;;;5.55;47.31;96899.86;107990;1270;33570;-73
2022/03/16 02:58:18;;;;;;;20.40;13.30;;;;;;;5.60;47.14;96900.16;108130;1270;35353;-74
2022/03/16 03:00:49;;;;;;;19.30;11.90;;;;;;;5.64;47.04;96892.35;108030;1270;42086;-73
2022/03/16 03:03:22;;;;;;;16.00;11.30;;;;;;;5.64;47.21;96884.66;108062;1270;35414;-73
2022/03/16 03:05:53;;;;;;;19.10;13.20;;;;;;;5.61;47.72;96883.64;108086;1270;52386;-73
2022/03/16 03:08:24;;;;;;;20.10;13.00;;;;;;;5.59;47.63;96885.71;108152;1269;39582;-73
2022/03/16 03:10:55;;;;;;;24.30;13.30;;;;;;;5.56;48.26;96881.69;108116;1270;31463;-74
2022/03/16 03:13:26;;;;;;;23.50;13.10;;;;;;;5.48;48.36;96883.30;108096;1270;40395;-74
2022/03/16 03:15:57;;;;;;;22.50;13.00;;;;;;;5.54;48.21;96886.82;108098;1270;36200;-74
2022/03/16 03:18:27;;;;;;;17.30;11.50;;;;;;;5.63;47.95;96893.10;108128;1270;29329;-73
2022/03/16 03:20:58;;;;;;;21.30;12.80;;;;;;;5.71;48.04;96892.48;108060;1270;35875;-74
2022/03/16 03:23:29;;;;;;;19.50;12.00;;;;;;;5.77;47.99;96898.47;108038;1270;31890;-74
2022/03/16 03:26:00;;;;;;;21.20;12.40;;;;;;;5.80;48.19;96897.95;108115;1270;39280;-73
2022/03/16 03:28:31;;;;;;;18.70;12.90;;;;;;;5.83;48.18;96900.05;108107;1270;33947;-74
2022/03/16 03:31:03;;;;;;;22.20;13.00;;;;;;;5.85;48.38;96901.39;108089;1270;41689;-73
2022/03/16 03:33:34;;;;;;;19.00;12.70;;;;;;;5.85;48.81;96902.64;108161;1270;32084;-74
2022/03/16 03:36:05;;;;;;;19.20;12.40;;;;;;;5.79;49.34;96903.36;108112;1270;37421;-73
2022/03/16 03:38:36;;;;;;;20.10;13.30;;;;;;;5.74;50.03;96900.42;108100;1270;34801;-73
2022/03/16 03:41:07;;;;;;;22.00;13.50;;;;;;;5.70;50.52;96901.59;108124;1270;37077;-74
2022/03/16 03:43:38;;;;;;;18.10;12.20;;;;;;;5.68;50.55;96901.13;108121;1270;34929;-73
2022/03/16 03:46:09;;;;;;;20.90;13.40;;;;;;;5.67;50.87;96901.48;108056;1270;40164;-74
2022/03/16 03:48:40;;;;;;;18.60;12.70;;;;;;;5.62;51.48;96899.39;108076;1270;36073;-74
2022/03/16 03:51:11;;;;;;;18.70;11.20;;;;;;;5.57;52.17;96897.05;108056;1270;43710;-73
2022/03/16 03:53:42;;;;;;;19.30;12.40;;;;;;;5.50;53.11;96904.62;108100;1270;36514;-73
2022/03/16 03:56:13;;;;;;;19.80;12.10;;;;;;;5.42;53.42;96900.96;108062;1270;41539;-74
2022/03/16 03:58:45;;;;;;;19.00;12.40;;;;;;;5.36;53.66;96899.93;107907;1271;67609;-73
2022/03/16 04:01:16;;;;;;;19.60;12.90;;;;;;;5.32;54.02;96901.05;108011;1270;31374;-73
2022/03/16 04:03:48;;;;;;;18.60;12.80;;;;;;;5.30;54.38;96905.60;108120;1270;38665;-73
2022/03/16 04:06:18;;;;;;;18.00;11.80;;;;;;;5.29;54.86;96909.69;108059;1270;35733;-73
2022/03/16 04:08:49;;;;;;;21.50;13.10;;;;;;;5.26;55.85;96907.86;108045;1270;49937;-73
2022/03/16 04:11:20;;;;;;;18.80;11.60;;;;;;;5.20;56.07;96907.65;107991;1271;53094;-73
2022/03/16 04:13:51;;;;;;;16.70;11.50;;;;;;;5.17;56.69;96909.16;108140;1270;34881;-73
2022/03/16 04:16:22;;;;;;;17.50;12.20;;;;;;;5.14;57.36;96910.58;108017;1271;35066;-73
2022/03/16 04:18:53;;;;;;;19.40;13.20;;;;;;;5.09;57.73;96913.29;108150;1270;42464;-73
2022/03/16 04:21:24;;;;;;;21.00;13.40;;;;;;;5.04;58.17;96918.29;108154;1270;32746;-73
2022/03/16 04:23:55;;;;;;;20.70;13.40;;;;;;;5.01;58.35;96915.39;106129;1270;2646216;-74
2022/03/16 04:26:26;;;;;;;19.00;13.20;;;;;;;4.99;58.56;96915.98;108076;1270;45358;-74
2022/03/16 04:28:57;;;;;;;18.20;12.50;;;;;;;4.97;58.76;96918.91;108090;1270;38544;-73
2022/03/16 04:31:28;;;;;;;20.50;12.90;;;;;;;4.94;59.11;96917.39;108062;1270;43336;-73
2022/03/16 04:33:59;;;;;;;19.40;11.80;;;;;;;4.92;59.74;96915.34;108028;1270;34182;-74
2022/03/16 04:36:31;;;;;;;19.30;13.10;;;;;;;4.88;60.21;96914.98;108055;1270;40660;-74
2022/03/16 04:39:02;;;;;;;20.50;11.70;;;;;;;4.83;60.19;96914.69;108189;1270;41237;-74
2022/03/16 04:41:33;;;;;;;18.20;12.00;;;;;;;4.84;60.37;96916.28;108122;1270;36339;-74
2022/03/16 04:44:04;;;;;;;18.50;12.60;;;;;;;4.84;60.73;96918.96;108131;1270;36316;-74
2022/03/16 04:46:35;;;;;;;18.10;12.20;;;;;;;4.85;60.80;96925.08;108138;1270;29518;-73
2022/03/16 04:49:06;;;;;;;19.70;11.40;;;;;;;4.86;61.01;96933.80;108105;1270;38280;-74
2022/03/16 04:51:37;;;;;;;17.50;12.30;;;;;;;4.84;61.24;96934.61;108134;1270;41788;-73
2022/03/16 04:54:09;;;;;;;17.90;12.50;;;;;;;4.82;61.51;96935.64;108109;1270;41057;-73
2022/03/16 04:56:40;;;;;;;21.50;13.40;;;;;;;4.81;61.95;96933.84;108074;1270;59333;-73
2022/03/16 04:59:11;;;;;;;18.00;11.90;;;;;;;4.80;61.67;96936.74;107978;1269;32721;-73
2022/03/16 05:01:42;;;;;;;17.60;12.70;;;;;;;4.78;61.88;96939.66;108107;1270;38786;-73
2022/03/16 05:04:13;;;;;;;20.10;13.10;;;;;;;4.81;61.49;96945.16;108083;1270;41191;-73
2022/03/16 05:06:44;;;;;;;19.00;12.60;;;;;;;4.85;61.53;96948.61;108047;1269;37822;-73
2022/03/16 05:09:15;;;;;;;18.20;12.70;;;;;;;4.89;61.51;96947.64;108043;1270;37399;-73
2022/03/16 05:11:46;;;;;;;18.70;12.00;;;;;;;4.92;61.55;96949.12;107988;1271;30943;-73
2022/03/16 05:14:17;;;;;;;20.40;12.20;;;;;;;4.91;62.11;96949.08;108123;1270;32873;-73
2022/03/16 05:16:48;;;;;;;17.10;11.60;;;;;;;4.88;62.25;96944.55;108019;1270;37860;-73
2022/03/16 05:19:19;;;;;;;24.80;15.40;;;;;;;4.81;62.29;96940.71;108145;1268;30807;-73
2022/03/16 05:21:50;;;;;;;25.00;16.60;;;;;;;4.82;62.43;96936.41;108174;1269;34947;-73
2022/03/16 05:24:22;;;;;;;22.00;14.40;;;;;;;4.87;62.55;96941.17;108164;1270;35306;-73
2022/03/16 05:26:54;;;;;;;20.00;13.60;;;;;;;4.90;62.88;96940.81;108145;1270;33824;-73
2022/03/16 05:29:25;;;;;;;22.70;13.80;;;;;;;4.89;62.97;96940.52;108089;1270;34976;-73
2022/03/16 05:31:55;;;;;;;24.30;17.20;;;;;;;4.90;62.93;96941.55;108127;1270;40195;-74
2022/03/16 05:34:26;;;;;;;26.70;18.20;;;;;;;4.96;62.74;96941.52;108069;1269;43456;-73
2022/03/16 05:36:58;;;;;;;24.40;17.50;;;;;;;5.02;62.94;96941.95;108112;1270;43082;-73
2022/03/16 05:39:29;;;;;;;23.80;17.00;;;;;;;5.07;63.17;96937.77;108050;1270;41082;-74
2022/03/16 05:42:00;;;;;;;23.70;17.50;;;;;;;5.10;63.10;96939.38;108097;1270;40029;-73
2022/03/16 05:44:31;;;;;;;29.00;18.30;;;;;;;5.13;63.22;96936.52;108145;1270;28821;-73
2022/03/16 05:47:02;;;;;;;26.30;18.70;;;;;;;5.10;63.63;96937.75;108096;1270;35858;-73
2022/03/16 05:49:33;;;;;;;27.30;19.00;;;;;;;5.06;63.53;96936.40;108151;1270;29927;-73
2022/03/16 05:52:05;;;;;;;23.50;17.20;;;;;;;5.10;63.22;96937.32;108127;1270;29630;-73
2022/03/16 05:54:36;;;;;;;24.00;16.60;;;;;;;5.05;64.71;96942.33;108095;1270;49716;-73
2022/03/16 05:57:09;;;;;;;23.90;17.50;;;;;;;4.87;64.87;96947.37;108157;1270;32410;-73
2022/03/16 05:59:40;;;;;;;22.60;15.20;;;;;;;4.83;65.14;96947.41;108121;1270;40354;-73
2022/03/16 06:02:11;;;;;;;24.90;17.10;;;;;;;4.76;66.05;96951.27;108057;1270;32104;-73
2022/03/16 06:04:43;;;;;;;25.40;17.70;;;;;;;4.70;66.18;96958.29;108160;1270;33784;-73
2022/03/16 06:07:14;;;;;;;24.60;18.10;;;;;;;4.74;66.45;96960.90;108095;1270;37658;-73
2022/03/16 06:09:45;;;;;;;25.30;19.00;;;;;;;4.80;66.57;96966.70;108046;1270;36080;-73
2022/03/16 06:12:16;;;;;;;30.40;20.10;;;;;;;4.85;66.52;96971.41;107984;1271;33934;-73
2022/03/16 06:14:47;;;;;;;24.20;18.30;;;;;;;4.92;66.35;96975.80;108053;1270;33801;-73
2022/03/16 06:17:18;;;;;;;27.80;17.40;;;;;;;4.97;67.07;96981.89;108112;1270;38335;-73
2022/03/16 06:19:49;;;;;;;51.50;25.10;;;;;;;4.91;67.56;96983.29;108124;1270;38802;-73
2022/03/16 06:22:21;;;;;;;39.10;22.10;;;;;;;4.87;67.15;96988.00;108151;1270;41002;-73
2022/03/16 06:24:52;;;;;;;38.80;21.70;;;;;;;4.94;66.75;96993.02;108180;1271;30919;-73
2022/03/16 06:27:22;;;;;;;28.60;19.20;;;;;;;5.01;66.70;96993.31;108181;1271;36486;-73
2022/03/16 06:29:53;;;;;;;29.60;19.90;;;;;;;5.06;66.48;96995.52;108130;1270;36574;-73
2022/03/16 06:32:25;;;;;;;33.80;23.30;;;;;;;5.08;66.58;97001.02;108174;1271;45076;-73
2022/03/16 06:34:55;;;;;;;30.00;20.60;;;;;;;5.05;66.75;97005.59;108143;1270;41798;-73
2022/03/16 06:37:26;;;;;;;27.50;20.30;;;;;;;5.10;66.81;97007.27;108090;1270;28916;-74
2022/03/16 06:39:57;;;;;;;30.00;20.60;;;;;;;5.15;67.37;97011.41;108070;1271;35940;-74
2022/03/16 06:42:28;;;;;;;27.00;19.80;;;;;;;5.18;67.63;97009.20;108078;1270;37327;-73
2022/03/16 06:45:00;;;;;;;23.00;17.60;;;;;;;5.18;67.78;97013.41;108095;1270;36737;-73
2022/03/16 06:47:32;;;;;;;24.40;17.40;;;;;;;5.18;67.66;97012.09;108114;1270;34441;-73
2022/03/16 06:50:03;;;;;;;26.20;19.50;;;;;;;5.16;67.79;97012.74;108075;1270;28236;-73
2022/03/16 06:52:34;;;;;;;24.40;18.30;;;;;;;5.12;68.28;97015.66;108123;1271;28171;-73
2022/03/16 06:55:06;;;;;;;27.70;19.10;;;;;;;5.09;68.06;97015.97;108052;1270;99566;-73
2022/03/16 06:57:38;;;;;;;28.70;20.00;;;;;;;5.03;68.84;97022.21;108016;1270;39165;-73
2022/03/16 07:00:14;;;;;;;24.40;18.20;;;;;;;4.93;69.30;97022.01;108047;1271;48587;-73
2022/03/16 07:02:53;;;;;;;28.60;19.30;;;;;;;4.81;69.57;97024.02;108054;1270;38728;-73
2022/03/16 07:05:28;;;;;;;25.30;17.10;;;;;;;4.76;69.95;97025.43;108181;1271;35714;-73
2022/03/16 07:08:00;;;;;;;23.70;17.20;;;;;;;4.73;70.14;97027.75;108115;1271;45079;-73
2022/03/16 07:10:33;;;;;;;23.80;18.00;;;;;;;4.69;70.52;97029.45;108068;1270;34886;-73
2022/03/16 07:13:04;;;;;;;22.80;17.20;;;;;;;4.67;70.70;97029.37;108091;1270;39360;-73
2022/03/16 07:15:35;;;;;;;27.60;18.50;;;;;;;4.73;71.00;97031.63;108064;1271;40088;-73
2022/03/16 07:18:06;;;;;;;27.60;19.60;;;;;;;4.82;71.26;97035.24;108119;1271;39745;-73
2022/03/16 07:20:37;;;;;;;31.30;22.80;;;;;;;4.94;71.52;97037.59;108048;1271;36467;-73
2022/03/16 07:23:18;;;;;;;23.50;16.80;;;;;;;5.04;71.44;97033.22;108131;1270;33798;-73
2022/03/16 07:25:51;;;;;;;33.20;23.10;;;;;;;5.12;71.13;97037.58;108144;1271;38721;-73
2022/03/16 07:28:22;;;;;;;29.10;21.40;;;;;;;5.26;71.37;97035.06;108148;1271;39964;-73
2022/03/16 07:30:53;;;;;;;22.90;18.80;;;;;;;5.41;71.45;97038.98;108147;1271;45029;-73
2022/03/16 07:33:24;;;;;;;24.20;18.00;;;;;;;5.54;71.50;97040.70;108166;1271;41122;-73
2022/03/16 07:35:55;;;;;;;26.70;18.20;;;;;;;5.60;71.40;97039.43;108148;1270;33387;-73
2022/03/16 07:38:26;;;;;;;24.90;19.20;;;;;;;5.66;71.39;97044.86;108072;1271;30892;-74
2022/03/16 07:40:59;;;;;;;24.10;18.00;;;;;;;5.73;71.31;97051.66;108142;1271;32018;-73
2022/03/16 07:43:30;;;;;;;26.30;18.90;;;;;;;5.78;71.35;97052.61;108140;1270;31512;-73
2022/03/16 07:46:01;;;;;;;22.00;17.50;;;;;;;5.80;71.14;97058.59;108113;1270;29268;-73
2022/03/16 07:48:34;;;;;;;23.90;16.90;;;;;;;5.79;70.73;97065.05;108080;1271;41808;-72
2022/03/16 07:51:05;;;;;;;22.50;18.20;;;;;;;5.80;71.06;97072.06;108033;1271;32280;-73
2022/03/16 07:53:36;;;;;;;21.70;16.80;;;;;;;5.78;71.03;97075.98;107981;1271;42077;-72
2022/03/16 07:56:07;;;;;;;22.40;18.30;;;;;;;5.78;71.20;97079.02;108061;1271;72395;-73
2022/03/16 07:58:41;;;;;;;24.00;19.00;;;;;;;5.83;71.24;97081.31;108131;1271;30907;-73
2022/03/16 08:01:12;;;;;;;23.60;17.80;;;;;;;5.88;71.24;97080.63;108062;1271;66130;-73
2022/03/16 08:03:43;;;;;;;24.70;18.90;;;;;;;5.96;71.04;97079.41;108050;1271;33742;-73
2022/03/16 08:06:14;;;;;;;25.00;19.50;;;;;;;6.00;71.32;97078.80;108078;1271;36276;-73
2022/03/16 08:08:45;;;;;;;24.30;19.30;;;;;;;6.02;71.32;97079.10;107973;1271;34819;-73
2022/03/16 08:11:16;;;;;;;26.40;19.30;;;;;;;6.06;71.21;97082.63;107944;1271;31159;-73
2022/03/16 08:13:47;;;;;;;25.50;19.70;;;;;;;6.09;71.23;97088.54;107986;1271;38028;-73
2022/03/16 08:16:17;;;;;;;29.00;21.80;;;;;;;6.06;71.05;97093.85;107992;1271;44472;-73
2022/03/16 08:18:48;;;;;;;27.00;20.90;;;;;;;6.07;71.23;97090.41;107981;1271;31753;-73
2022/03/16 08:21:19;;;;;;;26.50;20.50;;;;;;;6.10;71.33;97093.61;108043;1271;38525;-72
2022/03/16 08:23:51;;;;;;;32.20;20.90;;;;;;;6.17;71.45;97092.14;108060;1271;34720;-73
2022/03/16 08:26:23;;;;;;;24.50;18.70;;;;;;;6.25;71.56;97094.86;108044;1271;39042;-73
2022/03/16 08:28:54;;;;;;;24.20;18.60;;;;;;;6.29;71.23;97089.65;108037;1271;35698;-73
2022/03/16 08:31:25;;;;;;;23.80;17.30;;;;;;;6.34;71.06;97092.13;108121;1270;35784;-73
2022/03/16 08:33:57;;;;;;;25.70;18.10;;;;;;;6.40;70.92;97090.05;107998;1269;38613;-73
2022/03/16 08:36:28;;;;;;;23.10;18.30;;;;;;;6.42;70.80;97092.45;108050;1271;34955;-73
2022/03/16 08:39:00;;;;;;;20.50;16.20;;;;;;;6.39;70.62;97086.94;108024;1271;44780;-73
2022/03/16 08:41:32;;;;;;;21.60;17.10;;;;;;;6.25;70.41;97094.80;108056;1271;32649;-73
2022/03/16 08:44:03;;;;;;;23.40;17.60;;;;;;;5.97;70.46;97100.13;108066;1271;36378;-73
2022/03/16 08:46:35;;;;;;;24.70;18.20;;;;;;;5.80;70.74;97099.48;108121;1271;31847;-73
2022/03/16 08:49:06;;;;;;;26.30;18.80;;;;;;;5.80;70.76;97101.10;108074;1270;31560;-73
2022/03/16 08:51:39;;;;;;;27.50;19.00;;;;;;;5.89;70.97;97103.73;108097;1271;38960;-73
2022/03/16 08:54:10;;;;;;;26.20;19.40;;;;;;;5.99;71.13;97104.88;108081;1271;31069;-73
2022/03/16 08:56:41;;;;;;;25.70;19.50;;;;;;;5.91;71.03;97109.00;108074;1271;37256;-73
2022/03/16 08:59:12;;;;;;;24.90;19.10;;;;;;;5.87;70.98;97105.39;108014;1270;38580;-73
2022/03/16 09:01:43;;;;;;;22.40;18.40;;;;;;;5.97;71.49;97106.13;108096;1271;32257;-73
2022/03/16 09:04:14;;;;;;;23.90;18.20;;;;;;;6.04;71.41;97103.43;108075;1270;43473;-73
2022/03/16 09:06:45;;;;;;;24.40;19.00;;;;;;;6.16;71.25;97109.18;108104;1270;40873;-73
2022/03/16 09:09:16;;;;;;;26.80;19.40;;;;;;;6.22;71.46;97114.23;108098;1270;36212;-73
2022/03/16 09:11:47;;;;;;;26.40;19.80;;;;;;;6.32;71.48;97115.50;108070;1271;29555;-73
2022/03/16 09:14:18;;;;;;;24.70;19.50;;;;;;;6.38;71.44;97122.19;108089;1270;35517;-73
2022/03/16 09:16:50;;;;;;;27.80;23.50;;;;;;;6.35;71.22;97126.20;108037;1270;39811;-73
2022/03/16 09:19:21;;;;;;;28.50;22.10;;;;;;;6.41;71.35;97126.88;108140;1271;47133;-73
2022/03/16 09:21:52;;;;;;;27.80;22.50;;;;;;;6.47;71.22;97126.93;108049;1271;61934;-73
2022/03/16 09:24:24;;;;;;;25.00;19.00;;;;;;;6.52;71.11;97136.60;108074;1271;38301;-73
2022/03/16 09:26:59;;;;;;;27.00;19.70;;;;;;;6.41;70.60;97147.42;108141;1271;25900;-73
2022/03/16 09:29:32;;;;;;;26.10;19.20;;;;;;;6.41;70.50;97154.58;108006;1271;36509;-74
2022/03/16 09:32:04;;;;;;;26.20;20.40;;;;;;;6.29;70.27;97154.42;108035;1271;40862;-73
2022/03/16 09:34:35;;;;;;;28.70;21.50;;;;;;;6.18;70.33;97155.50;108127;1269;41038;-73
2022/03/16 09:37:07;;;;;;;25.60;19.60;;;;;;;6.24;70.88;97153.56;108098;1271;42416;-73
2022/03/16 09:39:39;;;;;;;25.00;20.00;;;;;;;6.32;71.00;97158.73;107953;1271;43627;-73
2022/03/16 09:42:11;;;;;;;25.10;21.00;;;;;;;6.33;71.04;97164.38;108070;1270;38996;-73
2022/03/16 09:44:42;;;;;;;23.80;20.40;;;;;;;6.36;70.99;97171.41;108047;1270;38711;-73
2022/03/16 09:47:14;;;;;;;24.60;19.30;;;;;;;6.43;71.07;97171.77;107988;1271;36737;-73
2022/03/16 09:49:46;;;;;;;26.40;20.80;;;;;;;6.37;70.69;97174.86;108030;1270;40527;-73
2022/03/16 09:52:17;;;;;;;25.80;20.60;;;;;;;6.38;70.59;97175.77;107998;1270;38581;-73
2022/03/16 09:54:48;;;;;;;25.20;20.40;;;;;;;6.43;70.48;97172.05;108003;1270;51034;-73
2022/03/16 09:57:19;;;;;;;24.50;19.50;;;;;;;6.52;70.51;97178.65;108016;1270;30061;-73
2022/03/16 09:59:51;;;;;;;23.00;19.20;;;;;;;6.62;70.47;97176.05;107968;1270;47641;-73
2022/03/16 10:02:22;;;;;;;23.70;20.20;;;;;;;6.68;70.39;97181.73;108049;1270;33134;-73
2022/03/16 10:04:55;;;;;;;23.40;19.80;;;;;;;6.74;70.19;97185.84;108144;1270;33823;-73
2022/03/16 10:07:36;;;;;;;25.50;20.10;;;;;;;6.77;70.49;97191.50;108046;1270;39704;-74
2022/03/16 10:13:16;;;;;;;26.50;20.20;;;;;;;6.81;70.32;97201.19;108062;1270;36860;-73
2022/03/16 10:15:48;;;;;;;24.60;20.20;;;;;;;6.80;70.35;97206.08;108052;1270;33195;-73
2022/03/16 10:18:21;;;;;;;29.30;21.90;;;;;;;6.84;70.37;97208.45;108082;1270;35592;-73
2022/03/16 10:20:52;;;;;;;29.00;22.20;;;;;;;6.93;70.49;97212.45;108088;1270;30745;-73
2022/03/16 10:23:27;;;;;;;24.70;20.40;;;;;;;6.92;70.36;97214.66;108143;1270;28456;-73
2022/03/16 10:26:03;;;;;;;26.10;20.20;;;;;;;7.01;70.21;97215.52;108046;1270;34962;-73
2022/03/16 10:28:35;;;;;;;25.80;20.50;;;;;;;7.16;70.40;97217.91;108026;1269;31803;-73
2022/03/16 10:31:08;;;;;;;27.30;21.20;;;;;;;7.30;70.31;97219.91;108093;1270;40524;-73
2022/03/16 10:33:48;;;;;;;25.40;20.80;;;;;;;7.25;69.64;97225.90;108112;1269;31894;-73
2022/03/16 10:36:21;;;;;;;27.20;22.40;;;;;;;7.02;70.19;97231.09;108146;1270;31246;-73
2022/03/16 10:38:54;;;;;;;26.70;20.00;;;;;;;7.13;70.46;97234.05;108193;1270;27554;-73
2022/03/16 10:47:14;;;;;;;27.60;20.80;;;;;;;6.76;70.50;97241.63;107985;1270;43275;-73
2022/03/16 10:49:48;;;;;;;27.20;21.00;;;;;;;6.77;70.34;97247.24;108034;1270;32060;-73
2022/03/16 10:52:19;;;;;;;29.50;23.50;;;;;;;6.66;70.11;97251.42;108109;1269;32354;-73
2022/03/16 10:54:51;;;;;;;27.00;21.70;;;;;;;6.61;70.60;97251.53;108107;1270;34698;-73
2022/03/16 10:57:23;;;;;;;31.10;25.10;;;;;;;6.49;70.55;97254.59;108163;1270;36001;-73
2022/03/16 10:59:56;;;;;;;35.00;24.70;;;;;;;6.49;71.16;97255.80;108158;1270;40810;-73
2022/03/16 11:02:34;;;;;;;32.70;25.90;;;;;;;6.57;71.07;97259.95;108135;1270;33773;-73
2022/03/16 11:05:06;;;;;;;29.90;24.10;;;;;;;6.65;71.16;97260.57;108052;1270;33695;-73
2022/03/16 11:07:40;;;;;;;29.00;22.70;;;;;;;6.72;70.89;97262.26;108126;1270;39846;-74
2022/03/16 11:10:12;;;;;;;29.60;23.50;;;;;;;6.76;70.69;97269.10;107114;1270;1233720;-73
2022/03/16 11:15:33;;;;;;;30.50;23.50;;;;;;;6.80;70.53;97278.70;107977;1270;33064;-73
2022/03/16 11:18:04;;;;;;;31.90;24.60;;;;;;;6.84;70.50;97282.55;107969;1270;38950;-73
2022/03/16 11:20:35;;;;;;;32.20;23.90;;;;;;;6.82;70.28;97279.20;108105;1269;30442;-74
2022/03/16 11:26:11;;;;;;;27.70;23.10;;;;;;;6.45;71.19;97283.96;107935;1270;43612;-74
2022/03/16 11:28:53;;;;;;;28.40;23.70;;;;;;;6.34;72.12;97284.45;108081;1270;44433;-73
2022/03/16 11:31:30;;;;;;;28.40;25.00;;;;;;;6.35;72.73;97281.78;108169;1270;35598;-73
2022/03/16 11:34:08;;;;;;;30.10;25.00;;;;;;;6.45;72.91;97280.19;107986;1270;42541;-74
2022/03/16 11:36:41;;;;;;;30.30;25.60;;;;;;;6.68;72.98;97276.89;108050;1270;39502;-73
2022/03/16 11:39:23;;;;;;;31.90;25.10;;;;;;;6.91;72.57;97281.05;108097;1270;34139;-73
2022/03/16 11:41:55;;;;;;;30.40;25.10;;;;;;;7.14;72.63;97280.75;108073;1270;41787;-73
2022/03/16 11:44:32;;;;;;;30.70;23.90;;;;;;;7.41;72.17;97280.00;108015;1270;42005;-74
2022/03/16 11:47:36;;;;;;;30.10;24.20;;;;;;;7.66;71.44;97279.78;107994;1270;38320;-73
2022/03/16 11:50:19;;;;;;;31.20;24.50;;;;;;;7.96;71.30;97276.34;108069;1270;37101;-73
2022/03/16 11:53:07;;;;;;;32.10;24.90;;;;;;;8.02;70.13;97276.73;107939;1270;40463;-73